createdAt,value
2022-11-19T00:01:57.429Z,94651.78
2022-11-19T00:04:26.532Z,94644.94
2022-11-19T00:06:54.582Z,94651.59
2022-11-19T00:09:22.341Z,94651.88
2022-11-19T00:12:07.798Z,94646.13
2022-11-19T00:14:35.670Z,94648.69
2022-11-19T00:17:03.673Z,94642.91
2022-11-19T00:19:32.632Z,94640.44
2022-11-19T00:22:00.266Z,94647.97
2022-11-19T00:24:28.954Z,94649.97
2022-11-19T00:26:57.320Z,94639.84
2022-11-19T00:29:25.025Z,94636.78
2022-11-19T00:31:53.368Z,94633.97
2022-11-19T00:34:21.060Z,94630.63
2022-11-19T00:36:51.185Z,94636.81
2022-11-19T00:39:19.331Z,94642.00
2022-11-19T00:41:47.293Z,94645.09
2022-11-19T00:44:14.905Z,94644.34
2022-11-19T00:46:42.816Z,94652.94
2022-11-19T00:49:10.455Z,94652.19
2022-11-19T00:51:38.941Z,94655.28
2022-11-19T00:54:08.048Z,94650.31
2022-11-19T00:56:36.270Z,94647.16
2022-11-19T00:59:04.450Z,94646.88
2022-11-19T01:01:32.676Z,94651.88
2022-11-19T01:04:00.388Z,94654.81
2022-11-19T01:06:28.611Z,94660.50
2022-11-19T01:08:56.311Z,94650.69
2022-11-19T01:11:27.800Z,94647.06
2022-11-19T01:13:55.789Z,94648.16
2022-11-19T01:16:25.874Z,94648.22
2022-11-19T01:18:54.010Z,94647.88
2022-11-19T01:21:23.987Z,94646.25
2022-11-19T01:23:51.922Z,94650.31
2022-11-19T01:26:20.465Z,94663.84
2022-11-19T01:28:49.582Z,94650.00
2022-11-19T01:31:19.927Z,94661.75
2022-11-19T01:33:47.895Z,94660.94
2022-11-19T01:36:18.165Z,94663.13
2022-11-19T01:38:50.514Z,94653.00
2022-11-19T01:41:19.468Z,94657.22
2022-11-19T01:43:50.302Z,94658.03
2022-11-19T01:46:20.622Z,94656.94
2022-11-19T01:48:52.068Z,94655.44
2022-11-19T01:51:25.494Z,94657.09
2022-11-19T01:53:54.992Z,94657.31
2022-11-19T01:56:24.614Z,94656.94
2022-11-19T01:58:58.919Z,94664.44
2022-11-19T02:01:27.600Z,94661.06
2022-11-19T02:03:55.370Z,94661.16
2022-11-19T02:06:23.312Z,94665.06
2022-11-19T02:08:51.581Z,94672.97
2022-11-19T02:11:37.748Z,94669.38
2022-11-19T02:14:22.495Z,94669.50
2022-11-19T02:17:01.657Z,94675.44
2022-11-19T02:19:53.228Z,94669.22
2022-11-19T02:22:37.876Z,94675.78
2022-11-19T02:25:19.713Z,94674.47
2022-11-19T02:28:09.851Z,94671.28
2022-11-19T02:30:42.183Z,94675.09
2022-11-19T02:33:16.076Z,94675.16
2022-11-19T02:35:49.587Z,94677.50
2022-11-19T02:38:26.479Z,94682.00
2022-11-19T02:40:59.781Z,94675.19
2022-11-19T02:43:34.785Z,94667.59
2022-11-19T02:46:09.177Z,94672.53
2022-11-19T02:48:40.293Z,94672.34
2022-11-19T02:51:09.225Z,94669.13
2022-11-19T02:53:37.465Z,94668.47
2022-11-19T02:56:13.171Z,94671.00
2022-11-19T02:59:05.788Z,94674.97
2022-11-19T03:01:56.394Z,94680.56
2022-11-19T03:04:32.688Z,94689.59
2022-11-19T03:07:05.877Z,94682.09
2022-11-19T03:09:38.003Z,94688.41
2022-11-19T03:12:14.989Z,94695.09
2022-11-19T03:15:08.455Z,94697.34
2022-11-19T03:17:51.949Z,94695.44
2022-11-19T03:20:26.588Z,94696.72
2022-11-19T03:22:59.219Z,94695.00
2022-11-19T03:25:31.806Z,94705.94
2022-11-19T03:28:04.778Z,94706.75
2022-11-19T03:30:33.079Z,94700.59
2022-11-19T03:33:07.677Z,94701.97
2022-11-19T03:35:40.700Z,94706.34
2022-11-19T03:38:13.425Z,94707.00
2022-11-19T03:40:43.135Z,94699.97
2022-11-19T03:43:18.152Z,94706.94
2022-11-19T03:45:48.209Z,94708.47
2022-11-19T03:48:19.447Z,94716.97
2022-11-19T03:50:50.457Z,94704.94
2022-11-19T03:53:21.194Z,94718.03
2022-11-19T03:55:54.620Z,94723.47
2022-11-19T03:58:25.603Z,94721.59
2022-11-19T04:00:54.001Z,94719.84
2022-11-19T04:03:23.374Z,94725.81
2022-11-19T04:05:51.731Z,94727.19
2022-11-19T04:08:19.383Z,94721.47
2022-11-19T04:10:47.732Z,94723.66
2022-11-19T04:13:15.403Z,94728.63
2022-11-19T04:15:43.505Z,94722.00
2022-11-19T04:18:11.159Z,94727.34
2022-11-19T04:20:40.187Z,94728.06
2022-11-19T04:23:07.823Z,94735.56
2022-11-19T04:25:36.099Z,94737.09
2022-11-19T04:28:03.753Z,94726.06
2022-11-19T04:30:32.033Z,94730.66
2022-11-19T04:32:59.718Z,94737.16
2022-11-19T04:35:27.756Z,94739.41
2022-11-19T04:37:56.744Z,94734.47
2022-11-19T04:40:25.221Z,94728.97
2022-11-19T04:42:52.881Z,94733.56
2022-11-19T04:45:21.187Z,94727.19
2022-11-19T04:47:48.889Z,94726.19
2022-11-19T04:50:17.052Z,94733.16
2022-11-19T04:52:44.730Z,94719.84
2022-11-19T04:55:13.770Z,94731.38
2022-11-19T04:57:41.471Z,94719.78
2022-11-19T05:00:10.562Z,94717.66
2022-11-19T05:02:38.207Z,94730.84
2022-11-19T05:05:07.135Z,94720.16
2022-11-19T05:07:34.835Z,94722.50
2022-11-19T05:10:03.223Z,94721.53
2022-11-19T05:12:32.237Z,94725.69
2022-11-19T05:15:00.723Z,94727.53
2022-11-19T05:17:28.379Z,94724.06
2022-11-19T05:19:56.428Z,94730.31
2022-11-19T05:22:24.077Z,94733.19
2022-11-19T05:24:51.972Z,94730.22
2022-11-19T05:27:20.120Z,94732.56
2022-11-19T05:29:49.188Z,94734.63
2022-11-19T05:32:17.518Z,94724.00
2022-11-19T05:34:45.322Z,94734.56
2022-11-19T05:37:13.361Z,94728.88
2022-11-19T05:39:41.085Z,94728.50
2022-11-19T05:42:09.187Z,94731.97
2022-11-19T05:44:36.856Z,94727.94
2022-11-19T05:47:06.485Z,94726.66
2022-11-19T05:49:34.196Z,94727.84
2022-11-19T05:52:02.578Z,94729.53
2022-11-19T05:54:30.388Z,94730.94
2022-11-19T05:56:58.391Z,94730.78
2022-11-19T05:59:26.128Z,94732.34
2022-11-19T06:01:53.929Z,94732.72
2022-11-19T06:04:22.951Z,94735.00
2022-11-19T06:06:51.449Z,94732.28
2022-11-19T06:09:19.513Z,94741.41
2022-11-19T06:11:51.224Z,94738.41
2022-11-19T06:14:21.973Z,94738.41
2022-11-19T06:16:51.702Z,94741.28
2022-11-19T06:19:20.462Z,94744.19
2022-11-19T06:21:50.552Z,94745.28
2022-11-19T06:24:18.972Z,94748.53
2022-11-19T06:26:47.409Z,94755.25
2022-11-19T06:29:17.252Z,94759.09
2022-11-19T06:31:46.004Z,94758.09
2022-11-19T06:34:13.663Z,94755.28
2022-11-19T06:36:45.109Z,94761.41
2022-11-19T06:39:17.115Z,94755.97
2022-11-19T06:41:45.906Z,94753.97
2022-11-19T06:44:13.565Z,94751.34
2022-11-19T06:46:41.698Z,94750.41
2022-11-19T06:49:12.254Z,94756.59
2022-11-19T06:51:42.564Z,94766.22
2022-11-19T06:54:10.847Z,94771.00
2022-11-19T06:56:40.016Z,94770.28
2022-11-19T06:59:07.685Z,94772.72
2022-11-19T07:01:35.796Z,94782.00
2022-11-19T07:04:03.540Z,94782.91
2022-11-19T07:06:31.745Z,94776.56
2022-11-19T07:08:59.667Z,94781.03
2022-11-19T07:11:27.687Z,94784.31
2022-11-19T07:13:58.569Z,94782.94
2022-11-19T07:16:29.196Z,94790.13
2022-11-19T07:18:58.346Z,94792.22
2022-11-19T07:21:26.890Z,94779.78
2022-11-19T07:23:54.960Z,94790.72
2022-11-19T07:26:22.866Z,94795.84
2022-11-19T07:28:51.029Z,94794.47
2022-11-19T07:31:20.160Z,94797.03
2022-11-19T07:33:48.632Z,94798.72
2022-11-19T07:36:18.571Z,94800.81
2022-11-19T07:38:47.477Z,94802.97
2022-11-19T07:41:32.532Z,94805.94
2022-11-19T07:44:01.017Z,94811.06
2022-11-19T07:46:30.052Z,94813.59
2022-11-19T07:48:59.754Z,94811.59
2022-11-19T07:51:28.089Z,94814.06
2022-11-19T07:53:57.292Z,94815.34
2022-11-19T07:56:25.569Z,94818.03
2022-11-19T07:58:53.745Z,94810.56
2022-11-19T08:01:26.868Z,94814.06
2022-11-19T08:03:57.035Z,94821.81
2022-11-19T08:06:26.502Z,94824.66
2022-11-19T08:08:56.018Z,94815.81
2022-11-19T08:11:24.727Z,94818.66
2022-11-19T08:13:53.054Z,94822.28
2022-11-19T08:16:35.617Z,94821.59
2022-11-19T08:19:07.444Z,94814.75
2022-11-19T08:21:35.273Z,94816.72
2022-11-19T08:24:03.769Z,94827.81
2022-11-19T08:26:31.524Z,94827.75
2022-11-19T08:28:59.238Z,94835.00
2022-11-19T08:31:27.311Z,94830.59
2022-11-19T08:33:54.986Z,94837.63
2022-11-19T08:36:24.074Z,94835.44
2022-11-19T08:38:51.995Z,94835.03
2022-11-19T08:41:37.190Z,94831.59
2022-11-19T08:44:05.904Z,94833.47
2022-11-19T08:46:33.554Z,94838.53
2022-11-19T08:49:01.924Z,94837.31
2022-11-19T08:51:30.996Z,94831.59
2022-11-19T08:53:58.982Z,94826.84
2022-11-19T08:56:26.881Z,94835.22
2022-11-19T08:58:59.824Z,94835.38
2022-11-19T09:01:30.402Z,94829.44
2022-11-19T09:03:58.663Z,94827.00
2022-11-19T09:06:26.965Z,94831.88
2022-11-19T09:08:56.667Z,94829.88
2022-11-19T09:11:24.327Z,94834.72
2022-11-19T09:13:52.849Z,94841.38
2022-11-19T09:16:20.617Z,94845.06
2022-11-19T09:18:48.604Z,94848.50
2022-11-19T09:21:16.374Z,94847.28
2022-11-19T09:23:44.332Z,94858.59
2022-11-19T09:26:15.659Z,94858.25
2022-11-19T09:28:44.576Z,94864.91
2022-11-19T09:31:14.677Z,94872.41
2022-11-19T09:33:43.933Z,94862.13
2022-11-19T09:36:12.845Z,94858.63
2022-11-19T09:38:41.373Z,94858.72
2022-11-19T09:41:33.865Z,94860.66
2022-11-19T09:44:13.798Z,94860.41
2022-11-19T09:46:47.353Z,94863.25
2022-11-19T09:49:19.692Z,94864.50
2022-11-19T09:51:57.157Z,94868.16
2022-11-19T09:54:26.129Z,94869.78
2022-11-19T09:57:00.506Z,94873.53
2022-11-19T09:59:36.529Z,94869.53
2022-11-19T10:02:14.257Z,94861.88
2022-11-19T10:04:42.507Z,94860.16
2022-11-19T10:07:16.302Z,94864.91
2022-11-19T10:09:56.064Z,94869.50
2022-11-19T10:12:41.492Z,94862.69
2022-11-19T10:15:21.005Z,94864.31
2022-11-19T10:18:00.994Z,94873.97
2022-11-19T10:20:52.433Z,94873.91
2022-11-19T10:23:24.286Z,94874.22
2022-11-19T10:26:00.253Z,94860.63
2022-11-19T10:28:31.799Z,94867.34
2022-11-19T10:31:07.777Z,94863.78
2022-11-19T10:33:40.318Z,94875.53
2022-11-19T10:36:12.248Z,94870.75
2022-11-19T10:38:51.273Z,94870.28
2022-11-19T10:41:28.066Z,94864.25
2022-11-19T10:44:01.413Z,94866.19
2022-11-19T10:46:30.118Z,94863.69
2022-11-19T10:49:00.067Z,94865.09
2022-11-19T10:51:30.623Z,94867.56
2022-11-19T10:53:58.934Z,94860.38
2022-11-19T10:56:38.654Z,94855.53
2022-11-19T10:59:13.634Z,94860.34
2022-11-19T11:01:44.471Z,94863.47
2022-11-19T11:04:16.905Z,94861.66
2022-11-19T11:06:53.309Z,94864.31
2022-11-19T11:09:34.528Z,94860.50
2022-11-19T11:12:28.733Z,94864.56
2022-11-19T11:15:01.899Z,94852.34
2022-11-19T11:17:31.699Z,94850.41
2022-11-19T11:20:01.880Z,94844.38
2022-11-19T11:22:29.914Z,94847.72
2022-11-19T11:25:02.716Z,94840.31
2022-11-19T11:27:36.104Z,94841.66
2022-11-19T11:30:17.201Z,94840.41
2022-11-19T11:32:45.403Z,94831.06
2022-11-19T11:35:31.696Z,94836.97
2022-11-19T11:38:01.218Z,94841.19
2022-11-19T11:40:30.431Z,94840.09
2022-11-19T11:42:59.021Z,94835.59
2022-11-19T11:45:32.891Z,94842.59
2022-11-19T11:48:06.734Z,94834.00
2022-11-19T11:50:36.445Z,94833.38
2022-11-19T11:53:09.426Z,94826.75
2022-11-19T11:55:38.535Z,94825.88
2022-11-19T11:58:07.642Z,94829.09
2022-11-19T12:00:39.158Z,94825.66
2022-11-19T12:03:08.618Z,94827.13
2022-11-19T12:05:47.246Z,94822.84
2022-11-19T12:08:29.675Z,94826.47
2022-11-19T12:11:03.061Z,94823.22
2022-11-19T12:13:50.201Z,94817.28
2022-11-19T12:16:29.207Z,94813.94
2022-11-19T12:19:10.754Z,94813.53
2022-11-19T12:21:51.888Z,94811.06
2022-11-19T12:24:39.869Z,94814.34
2022-11-19T12:27:20.325Z,94804.84
2022-11-19T12:29:57.049Z,94804.81
2022-11-19T12:32:42.088Z,94803.38
2022-11-19T12:35:22.692Z,94802.94
2022-11-19T12:38:30.617Z,94806.25
2022-11-19T12:41:12.009Z,94809.00
2022-11-19T12:43:52.623Z,94805.03
2022-11-19T12:46:32.766Z,94800.56
2022-11-19T12:49:23.808Z,94809.91
2022-11-19T12:51:58.802Z,94806.06
2022-11-19T12:54:41.315Z,94808.25
2022-11-19T12:57:23.214Z,94807.44
2022-11-19T13:00:09.182Z,94809.91
2022-11-19T13:02:45.397Z,94811.69
2022-11-19T13:05:19.090Z,94804.19
2022-11-19T13:07:54.044Z,94803.16
2022-11-19T13:10:25.423Z,94805.69
2022-11-19T13:12:57.570Z,94799.69
2022-11-19T13:15:30.675Z,94798.31
2022-11-19T13:18:02.545Z,94789.19
2022-11-19T13:20:40.395Z,94786.13
2022-11-19T13:23:16.538Z,94793.25
2022-11-19T13:25:50.954Z,94786.56
2022-11-19T13:28:24.428Z,94799.13
2022-11-19T13:30:56.136Z,94798.38
2022-11-19T13:33:29.579Z,94787.97
2022-11-19T13:36:04.220Z,94791.97
2022-11-19T13:38:38.709Z,94790.78
2022-11-19T13:41:12.114Z,94792.78
2022-11-19T13:43:58.674Z,94795.59
2022-11-19T13:46:33.049Z,94797.75
2022-11-19T13:49:05.995Z,94800.81
2022-11-19T13:51:39.109Z,94797.22
2022-11-19T13:54:09.510Z,94798.66
2022-11-19T13:56:41.277Z,94803.66
2022-11-19T13:59:25.101Z,94805.03
2022-11-19T14:02:03.258Z,94809.53
2022-11-19T14:04:47.957Z,94818.34
2022-11-19T14:07:39.545Z,94809.06
2022-11-19T14:10:17.213Z,94810.16
2022-11-19T14:13:19.147Z,94810.09
2022-11-19T14:16:16.232Z,94807.44
2022-11-19T14:19:05.928Z,94802.69
2022-11-19T14:22:04.393Z,94803.44
2022-11-19T14:25:17.890Z,94805.91
2022-11-19T14:27:45.942Z,94808.28
2022-11-19T14:30:19.523Z,94811.88
2022-11-19T14:32:50.183Z,94799.78
2022-11-19T14:35:38.324Z,94807.66
2022-11-19T14:38:34.138Z,94813.25
2022-11-19T14:41:27.580Z,94813.16
2022-11-19T14:44:09.612Z,94811.66
2022-11-19T14:46:39.432Z,94809.69
2022-11-19T14:49:24.301Z,94809.28
2022-11-19T14:51:55.144Z,94814.00
2022-11-19T14:54:31.900Z,94815.25
2022-11-19T14:57:05.627Z,94814.41
2022-11-19T14:59:37.744Z,94809.91
2022-11-19T15:02:17.117Z,94814.66
2022-11-19T15:04:53.258Z,94815.66
2022-11-19T15:07:36.347Z,94816.69
2022-11-19T15:10:36.744Z,94815.13
2022-11-19T15:13:36.455Z,94810.19
2022-11-19T15:16:09.353Z,94813.59
2022-11-19T15:19:06.842Z,94823.03
2022-11-19T15:22:19.723Z,94825.38
2022-11-19T15:24:58.739Z,94814.38
2022-11-19T15:27:49.694Z,94816.81
2022-11-19T15:30:22.025Z,94811.56
2022-11-19T15:33:10.851Z,94819.81
2022-11-19T15:36:10.686Z,94819.25
2022-11-19T15:38:41.415Z,94819.63
2022-11-19T15:41:15.186Z,94819.63
2022-11-19T15:43:46.194Z,94815.22
2022-11-19T15:46:20.609Z,94818.53
2022-11-19T15:48:58.984Z,94825.44
2022-11-19T15:51:26.789Z,94844.06
2022-11-19T15:54:02.184Z,94838.00
2022-11-19T15:56:33.525Z,94840.00
2022-11-19T15:59:03.517Z,94844.88
2022-11-19T16:01:34.336Z,94836.75
2022-11-19T16:04:07.721Z,94844.06
2022-11-19T16:06:36.959Z,94846.47
2022-11-19T16:09:05.883Z,94850.31
2022-11-19T16:11:55.296Z,94848.91
2022-11-19T16:14:43.160Z,94852.75
2022-11-19T16:17:39.812Z,94848.91
2022-11-19T16:20:22.338Z,94860.56
2022-11-19T16:22:59.183Z,94854.47
2022-11-19T16:25:33.210Z,94862.50
2022-11-19T16:28:03.918Z,94859.53
2022-11-19T16:30:41.628Z,94867.28
2022-11-19T16:33:16.044Z,94867.03
2022-11-19T16:35:49.712Z,94868.28
2022-11-19T16:38:26.100Z,94867.09
2022-11-19T16:41:12.505Z,94870.53
2022-11-19T16:43:42.863Z,94875.06
2022-11-19T16:46:15.563Z,94877.50
2022-11-19T16:49:03.000Z,94876.81
2022-11-19T16:51:39.697Z,94897.44
2022-11-19T16:54:09.758Z,94889.34
2022-11-19T16:56:45.949Z,94898.16
2022-11-19T16:59:23.745Z,94912.19
2022-11-19T17:01:56.128Z,94906.63
2022-11-19T17:04:28.128Z,94910.91
2022-11-19T17:06:57.904Z,94909.59
2022-11-19T17:09:37.348Z,94913.53
2022-11-19T17:12:23.354Z,94909.66
2022-11-19T17:14:54.274Z,94910.56
2022-11-19T17:17:27.743Z,94918.63
2022-11-19T17:19:58.411Z,94924.44
2022-11-19T17:22:30.727Z,94924.72
2022-11-19T17:24:59.197Z,94931.25
2022-11-19T17:27:29.051Z,94932.63
2022-11-19T17:30:01.628Z,94934.78
2022-11-19T17:32:34.929Z,94930.91
2022-11-19T17:35:04.644Z,94938.22
2022-11-19T17:37:32.298Z,94936.59
2022-11-19T17:40:00.262Z,94933.31
2022-11-19T17:42:45.621Z,94933.84
2022-11-19T17:45:13.641Z,94940.75
2022-11-19T17:47:41.282Z,94941.56
2022-11-19T17:50:10.702Z,94944.94
2022-11-19T17:52:38.339Z,94938.97
2022-11-19T17:55:15.001Z,94941.47
2022-11-19T17:57:42.960Z,94937.78
2022-11-19T18:00:11.851Z,94945.47
2022-11-19T18:02:39.536Z,94938.16
2022-11-19T18:05:17.138Z,94943.03
2022-11-19T18:07:44.781Z,94941.22
2022-11-19T18:10:12.950Z,94950.28
2022-11-19T18:12:41.195Z,94947.41
2022-11-19T18:15:14.408Z,94946.16
2022-11-19T18:17:42.430Z,94942.91
2022-11-19T18:20:10.911Z,94942.72
2022-11-19T18:22:41.300Z,94946.16
2022-11-19T18:25:14.820Z,94939.34
2022-11-19T18:27:43.032Z,94944.94
2022-11-19T18:30:11.873Z,94938.06
2022-11-19T18:32:39.865Z,94936.44
2022-11-19T18:35:16.057Z,94944.94
2022-11-19T18:37:45.790Z,94933.19
2022-11-19T18:40:15.755Z,94931.94
2022-11-19T18:43:04.869Z,94937.56
2022-11-19T18:45:31.615Z,94931.50
2022-11-19T18:47:59.353Z,94926.63
2022-11-19T18:50:30.047Z,94925.63
2022-11-19T18:53:00.098Z,94927.09
2022-11-19T18:55:28.207Z,94934.63
2022-11-19T18:57:56.121Z,94936.31
2022-11-19T19:00:23.941Z,94939.84
2022-11-19T19:02:52.145Z,94936.88
2022-11-19T19:05:19.798Z,94939.78
2022-11-19T19:07:47.725Z,94945.84
2022-11-19T19:10:17.226Z,94941.69
2022-11-19T19:12:44.066Z,94946.28
2022-11-19T19:15:11.784Z,94953.16
2022-11-19T19:17:39.764Z,94950.81
2022-11-19T19:20:08.699Z,94949.44
2022-11-19T19:22:36.826Z,94957.97
2022-11-19T19:25:05.680Z,94953.75
2022-11-19T19:27:35.039Z,94962.59
2022-11-19T19:30:02.746Z,94964.03
2022-11-19T19:32:30.970Z,94966.03
2022-11-19T19:34:58.605Z,94968.75
2022-11-19T19:37:26.246Z,94963.13
2022-11-19T19:39:53.882Z,94972.00
2022-11-19T19:42:21.984Z,94968.03
2022-11-19T19:44:50.990Z,94973.06
2022-11-19T19:47:19.320Z,94968.63
2022-11-19T19:49:47.072Z,94971.19
2022-11-19T19:52:15.013Z,94966.03
2022-11-19T19:54:43.591Z,94968.75
2022-11-19T19:57:11.346Z,94975.09
2022-11-19T19:59:38.969Z,94973.44
2022-11-19T20:02:10.383Z,94974.38
2022-11-19T20:04:38.058Z,94971.66
2022-11-19T20:07:06.847Z,94980.25
2022-11-19T20:09:34.924Z,94984.56
2022-11-19T20:12:02.570Z,94985.13
2022-11-19T20:14:30.844Z,94980.16
2022-11-19T20:16:58.676Z,94977.78
2022-11-19T20:19:28.004Z,94976.53
2022-11-19T20:21:56.297Z,94980.78
2022-11-19T20:24:24.476Z,94971.19
2022-11-19T20:26:52.107Z,94974.53
2022-11-19T20:29:21.900Z,94976.25
2022-11-19T20:31:51.608Z,94979.06
2022-11-19T20:34:19.765Z,94977.44
2022-11-19T20:36:48.867Z,94973.53
2022-11-19T20:39:17.360Z,94982.41
2022-11-19T20:42:02.794Z,94981.59
2022-11-19T20:44:31.169Z,94983.03
2022-11-19T20:46:59.883Z,94983.13
2022-11-19T20:49:29.769Z,94978.00
2022-11-19T20:51:59.028Z,94978.91
2022-11-19T20:54:27.764Z,94984.25
2022-11-19T20:56:56.725Z,94985.94
2022-11-19T20:59:26.355Z,94981.06
2022-11-19T21:01:55.498Z,94978.88
2022-11-19T21:04:24.191Z,94977.41
2022-11-19T21:06:53.729Z,94978.63
2022-11-19T21:09:23.349Z,94991.81
2022-11-19T21:11:51.384Z,95003.31
2022-11-19T21:14:19.876Z,95004.00
2022-11-19T21:16:47.682Z,95006.56
2022-11-19T21:19:16.353Z,95005.78
2022-11-19T21:21:45.342Z,95006.50
2022-11-19T21:24:13.581Z,95007.94
2022-11-19T21:26:42.725Z,95001.50
2022-11-19T21:29:11.248Z,95006.41
2022-11-19T21:31:40.374Z,94999.88
2022-11-19T21:34:09.836Z,95001.19
2022-11-19T21:36:38.465Z,95003.25
2022-11-19T21:39:07.556Z,95005.69
2022-11-19T21:41:35.462Z,95008.44
2022-11-19T21:44:06.191Z,95000.81
2022-11-19T21:46:34.607Z,95001.38
2022-11-19T21:49:02.981Z,95003.97
2022-11-19T21:51:30.763Z,95002.31
2022-11-19T21:53:59.587Z,94997.72
2022-11-19T21:56:31.280Z,95003.97
2022-11-19T21:59:01.773Z,95003.97
2022-11-19T22:01:30.776Z,95004.22
2022-11-19T22:03:58.949Z,95011.78
2022-11-19T22:06:26.565Z,95001.50
2022-11-19T22:08:55.657Z,95013.09
2022-11-19T22:11:32.479Z,95017.41
2022-11-19T22:14:03.231Z,95018.72
2022-11-19T22:16:34.937Z,95005.94
2022-11-19T22:19:03.026Z,95010.81
2022-11-19T22:21:30.679Z,95014.44
2022-11-19T22:23:58.963Z,95000.97
2022-11-19T22:26:27.159Z,95009.19
2022-11-19T22:28:55.111Z,95009.25
2022-11-19T22:31:22.942Z,95004.31
2022-11-19T22:33:53.032Z,95002.28
2022-11-19T22:36:22.702Z,95006.28
2022-11-19T22:38:51.181Z,95004.75
2022-11-19T22:41:21.102Z,95007.38
2022-11-19T22:43:49.215Z,95008.94
2022-11-19T22:46:18.463Z,95010.50
2022-11-19T22:48:46.091Z,95007.69
2022-11-19T22:51:17.587Z,95011.75
2022-11-19T22:53:45.736Z,95006.28
2022-11-19T22:56:16.437Z,95001.75
2022-11-19T22:58:44.213Z,95002.91
2022-11-19T23:01:18.747Z,95008.38
2022-11-19T23:03:47.034Z,95012.00
2022-11-19T23:06:16.725Z,95005.13
2022-11-19T23:08:44.963Z,95003.06
2022-11-19T23:11:14.500Z,95010.50
2022-11-19T23:13:43.157Z,95011.19
2022-11-19T23:16:15.327Z,95005.94
2022-11-19T23:18:48.053Z,95005.56
2022-11-19T23:21:19.861Z,95010.38
2022-11-19T23:23:47.637Z,95012.97
2022-11-19T23:26:17.880Z,95007.47
2022-11-19T23:28:45.881Z,95007.09
2022-11-19T23:31:16.484Z,95015.47
2022-11-19T23:33:44.546Z,95006.06
2022-11-19T23:36:15.429Z,95012.56
2022-11-19T23:38:44.822Z,95009.75
2022-11-19T23:41:15.307Z,95011.19
2022-11-19T23:43:43.476Z,95011.06
2022-11-19T23:46:13.617Z,95014.38
2022-11-19T23:48:43.901Z,95013.50
2022-11-19T23:51:14.357Z,95011.56
2022-11-19T23:53:44.241Z,95007.63
2022-11-19T23:56:13.280Z,95006.41
2022-11-19T23:58:41.234Z,95006.34
